Aviation Digital Data Service (ADDS)

Output produced by METARs form (0006 UTC 24 May 2022)
found at http://www.aviationweather.gov/metar/data/
 
LIEA 232350Z 22009KT 9999 SCT010 22/20 Q1008
TAF LIEA 232300Z 2400/2424 20007KT CAVOK 
     TEMPO 2400/2405 3000 BCFG 
     BECMG 2410/2412 28010KT
       
LIBA 232355Z 14002KT 0700 FG SCT002 18/18 Q1009
TAF COR LIBA 232300Z 2400/2409 VRB03KT 5000 BR 
     TEMPO 2401/2404 1500 MIFG
       
LIMW 231850Z AUTO 09009KT 9999 BKN110/// 23/15 Q1005
TAF LIMW 231700Z 2318/2403 10018KT 9999 SCT040 
     TEMPO 2318/2320 10020G30KT 4000 TSRA 
     BECMG 2318/2320 VRB05KT
       
LIPA 232155Z /////KT 9999 SCT080 21/19 Q1007 RMK SCT VIS MIN 9999 WIND THR05 /////KT WIND THR23 /////KT A2977 BLU
TAF LIPA 232000Z 2321/2406 01004KT 9999 SCT050
       
LIME 232350Z 02003KT CAVOK 19/15 Q1006 NOSIG
TAF LIME 232300Z 2400/2424 34006KT 9999 SCT050 
     BECMG 2411/2413 15010KT 
     TEMPO 2414/2418 4000 TSRA 
     BECMG 2416/2418 35012KT
       
LIPE 232350Z 17006KT CAVOK 23/14 Q1005
TAF LIPE 232300Z 2400/2424 20010KT CAVOK 
     BECMG 2400/2402 VRB05KT 
     BECMG 2414/2416 21012KT
       
LIPB 231950Z 18009KT 150V210 9999 BKN110 25/15 Q1004
TAF LIPB 231700Z 2318/2418 17010KT 9999 SCT060 
     TEMPO 2318/2322 TSRA 
     BECMG 2323/2401 VRB05KT 
     BECMG 2410/2412 18012KT 
     TEMPO 2412/2418 4000 TSRA
       
TAF LIMN 231700Z 2318/2403 19005KT 9999 SCT040
       
LIRN 232350Z 00000KT CAVOK 18/17 Q1011 NOSIG
TAF LIRN 232300Z 2400/2424 VRB05KT 9999 SCT030 
     BECMG 2408/2410 23010KT 
     BECMG 2418/2420 VRB05KT
       
LIBR 232350Z 19006KT CAVOK 20/15 Q1010
TAF LIBR 232300Z 2400/2424 19010KT CAVOK
       
LICC 232350Z 24007KT CAVOK 18/13 Q1010
TAF LICC 232300Z 2400/2424 VRB06KT CAVOK 
     BECMG 2408/2410 09012KT 
     BECMG 2418/2420 24008KT
       
LIPC 232355Z VRB03KT CAVOK 21/18 Q1005
TAF LIPC 232300Z 2400/2409 18004KT CAVOK
       
LIRA 232350Z 20002KT CAVOK 18/08 Q1010
TAF LIRA 232300Z 2400/2424 VRB05KT CAVOK 
     BECMG 2407/2409 16012KT 
     BECMG 2418/2420 VRB05KT
       
TAF COR LIBC 231219Z 2312/2412 20017KT CAVOK 
     BECMG 2316/2318 VRB05KT
       
LIED 232355Z 17001KT CAVOK 19/19 Q1008
TAF LIED 232300Z 2400/2409 VRB05KT CAVOK
       
LIEE 232350Z 35005KT CAVOK 19/17 Q1009
TAF LIEE 232300Z 2400/2424 34008KT CAVOK 
     BECMG 2409/2411 16010KT 
     BECMG 2419/2421 VRB05KT
       
LIPY 232350Z AUTO VRB02KT 9999 BKN150/// BKN190/// 21/16 Q1006
TAF LIPY 232300Z 2400/2424 17010KT CAVOK 
     BECMG 2402/2404 VRB05KT 
     BECMG 2410/2412 06012KT
       
LIRF 232350Z 13006KT CAVOK 18/18 Q1010 NOSIG
TAF LIRF 232300Z 2400/2506 16010KT CAVOK 
     BECMG 2403/2406 16018G28KT 
     BECMG 2416/2418 16015KT 
     BECMG 2500/2503 07007KT
       
LIMJ 232350Z 13012KT 9999 BKN024 21/19 Q1006
TAF LIMJ 232300Z 2400/2424 13013KT 9999 SCT030 
     TEMPO 2409/2412 SHRA
       
LIPL 232355Z 09005KT CAVOK 22/20 Q1005
TAF LIPL 232300Z 2400/2409 13004KT CAVOK
       
TAF COR LIBF 231221Z 2312/2412 24008KT CAVOK 
     BECMG 2312/2314 09012KT 
     BECMG 2318/2320 VRB05KT
       
LIBV 232355Z 20002KT 8000 NSC 16/16 Q1010
TAF LIBV 232300Z 2400/2409 18007KT CAVOK 
     TEMPO 2401/2405 6000 NSC
       
LIRM 232355Z 03002KT 0700 FG NSC 14/14 Q1011
TAF LIRM 232300Z 2400/2409 VRB03KT CAVOK
       
LIRS 232355Z 21007KT CAVOK 20/17 Q1008
TAF LIRS 232300Z 2400/2409 16010KT 9999 FEW012 SCT050 
     TEMPO 2401/2403 16015G25KT 
     BECMG 2403/2405 9999 BKN015
       
TAF LIBG 231400Z 2315/2324 19010KT CAVOK 
     BECMG 2317/2319 VRB05KT
       
TAF LIRG 231400Z 2315/2324 20007KT CAVOK
       
LIPS 232355Z /////KT CAVOK 20/19 Q1007
TAF LIPS 232300Z 2400/2409 07004KT 9999 SCT070
       
LICA 232350Z AUTO 35003KT 320V020 9999 NCD 17/16 Q1011
TAF LICA 232300Z 2400/2424 VRB05KT CAVOK 
     BECMG 2407/2409 28012KT 
     BECMG 2418/2420 07006KT
       
LICD 232350Z AUTO 13005KT 9999 NCD 21/19 Q1011
TAF LICD 232300Z 2400/2424 16010KT CAVOK
       
TAF LIRL 231400Z 2315/2324 18005KT CAVOK
       
LIBN 232355Z 13003KT CAVOK 19/18 Q1010
TAF LIBN 231400Z 2315/2324 20012KT 9999 FEW025 
     BECMG 2317/2319 CAVOK
       
LIMZ 232350Z AUTO VRB02KT 9999 SCT029/// 16/14 Q1005
TAF LIMZ 232300Z 2400/2424 VRB05KT 9999 SCT030 
     TEMPO 2412/2418 TSRA
       
LIML 232350Z 06003KT CAVOK 21/09 Q1005 NOSIG
TAF LIML 232300Z 2400/2424 VRB05KT 9999 SCT050 
     BECMG 2410/2412 23010KT 
     TEMPO 2415/2421 TSRA
       
LIMC 232350Z 02005KT 9999 FEW070 15/11 Q1006 NOSIG
TAF LIMC 232300Z 2400/2506 35007KT 9999 SCT050 
     TEMPO 2401/2406 SHRA 
     TEMPO 2410/2418 4000 TSRA
       
LIPO 232350Z AUTO 05004KT 020V080 9999 NCD 21/17 Q1005
TAF LIPO 232300Z 2400/2424 VRB05KT 9999 FEW040 
     BECMG 2402/2404 08010KT 
     TEMPO 2415/2418 4000 TSRA
       
LIEO 232350Z VRB01KT CAVOK 16/15 Q1007
TAF LIEO 232300Z 2400/2424 VRB05KT CAVOK 
     BECMG 2408/2410 06010KT 
     BECMG 2417/2419 VRB05KT
       
LICJ 232350Z VRB02KT CAVOK 20/14 Q1010
TAF LICJ 232300Z 2400/2424 19006KT CAVOK 
     BECMG 2408/2410 04010KT 
     BECMG 2418/2420 19007KT
       
LIBD 232350Z 21005KT CAVOK 19/15 Q1009
TAF LIBD 232300Z 2400/2424 VRB05KT CAVOK 
     BECMG 2410/2412 09012KT 
     BECMG 2416/2418 18010KT
       
TAF LICG 231400Z 2315/2324 16012KT CAVOK
       
LIMP 231950Z 23012KT CAVOK 26/05 Q1005
TAF LIMP 231700Z 2318/2418 22013KT 9999 FEW040 
     TEMPO 2415/2418 4000 SHRA
       
LIRQ 232350Z 34003KT 270V350 CAVOK 18/17 Q1008
TAF LIRQ 232300Z 2400/2424 VRB05KT 9999 FEW025 
     BECMG 2409/2411 24010KT 
     BECMG 2418/2420 VRB05KT
       
LIRZ 232350Z AUTO 29004KT 260V340 9999 NCD 18/09 Q1009
TAF LIRZ 232300Z 2400/2424 VRB05KT CAVOK 
     BECMG 2408/2410 22012KT 
     BECMG 2418/2420 VRB05KT
       
LIBP 232350Z AUTO VRB02KT 9999 NCD 17/15 Q1007
TAF LIBP 232300Z 2400/2424 VRB05KT CAVOK 
     BECMG 2410/2412 06010KT
       
LIRP 232345Z 04002KT CAVOK 18/18 Q1008 NOSIG
TAF LIRP 232300Z 2400/2424 11005KT CAVOK 
     TEMPO 2403/2406 9999 BKN010 
     BECMG 2411/2413 25010KT 
     BECMG 2417/2419 VRB03KT
       
LIRE 232355Z 12008KT CAVOK 18/15 Q1010
TAF LIRE 232300Z 2400/2409 16012KT CAVOK 
     TEMPO 2407/2409 16018G28KT
       
LICR 232350Z AUTO VRB02KT 9999 NCD 20/08 Q1010
TAF LICR 232300Z 2400/2424 36010KT CAVOK 
     BECMG 2413/2415 16010KT 
     BECMG 2418/2420 VRB05KT
       
LIPR 232350Z AUTO 18008KT 9999 FEW120/// BKN150/// 26/08 Q1005
TAF LIPR 232300Z 2400/2424 18010KT CAVOK 
     BECMG 2410/2412 09010KT
       
LIPI 232355Z 33003KT 9999 SCT045 SCT070 20/18 Q1008
LIPQ 232350Z AUTO 02003KT 360V100 9999 NCD 18/16 Q1007
TAF LIPQ 232300Z 2400/2424 VRB05KT CAVOK 
     BECMG 2408/2410 19010KT 
     BECMG 2416/2418 VRB05KT
       
LICZ 232355Z 30005KT CAVOK 20/20 Q1010
TAF LICZ 232300Z 2400/2424 29007KT CAVOK 
     BECMG 2412/2414 09012KT 
     BECMG 2417/2419 VRB05KT
       
LIMF 232350Z 02003KT 9999 SCT045 20/16 Q1005
TAF LIMF 232300Z 2400/2424 VRB05KT 9999 SCT050 
     TEMPO 2402/2406 4000 SHRA 
     TEMPO 2409/2418 4000 TSRA
       
LICT 232355Z 14007KT CAVOK 18/11 Q1010
TAF LICT 232300Z 2400/2409 15010KT CAVOK
       
LIPH 232350Z AUTO 05006KT 9999 FEW200/// 21/18 Q1006
TAF LIPH 232300Z 2400/2424 VRB05KT CAVOK 
     BECMG 2405/2407 04010KT 
     BECMG 2416/2418 VRB05KT 
     TEMPO 2416/2418 TSRA
       
TAF LIRU 231400Z 2315/2324 21010KT CAVOK 
     BECMG 2318/2320 VRB05KT
       
LIPZ 232350Z 05009KT 9999 SCT015 21/19 Q1006 NOSIG
TAF LIPZ 232300Z 2400/2506 05010KT CAVOK 
     BECMG 2406/2408 15010KT 
     BECMG 2418/2420 05008KT 
     TEMPO 2418/2424 4000 TSRA
       
LIPX 232350Z 14004KT 100V180 CAVOK 19/15 Q1005
TAF LIPX 232300Z 2400/2424 10008KT 9999 SCT050 
     TEMPO 2412/2418 4000 TSRA 
     BECMG 2416/2418 34010KT
       
LIRV 231955Z 27005KT CAVOK 20/14 Q1011 RMK SKC MON E SE LIB NC VIS MIN 9999 WIND THR04 /////KT BLU
TAF LIRV 232000Z 2321/2406 VRB03KT CAVOK 
     BECMG 2323/2401 18008KT